sensor_id;sensor_type;location;lat;lon;timestamp;temperature;humidity
38938;DHT22;24727;51.974;20.868;2023-04-01T00:01:12;9.40;1.00
38938;DHT22;24727;51.974;20.868;2023-04-01T00:03:39;9.40;1.00
38938;DHT22;24727;51.974;20.868;2023-04-01T00:06:07;9.40;1.00
38938;DHT22;24727;51.974;20.868;2023-04-01T00:08:32;9.40;1.00
38938;DHT22;24727;51.974;20.868;2023-04-01T00:10:59;9.50;1.00
38938;DHT22;24727;51.974;20.868;2023-04-01T00:13:26;9.60;1.00
38938;DHT22;24727;51.974;20.868;2023-04-01T00:15:55;9.60;1.00
38938;DHT22;24727;51.974;20.868;2023-04-01T00:18:21;9.50;1.00
38938;DHT22;24727;51.974;20.868;2023-04-01T00:20:50;9.50;1.00
38938;DHT22;24727;51.974;20.868;2023-04-01T00:23:17;9.50;1.00
38938;DHT22;24727;51.974;20.868;2023-04-01T00:25:44;9.50;1.00
38938;DHT22;24727;51.974;20.868;2023-04-01T00:28:11;9.50;1.00
38938;DHT22;24727;51.974;20.868;2023-04-01T00:30:38;9.50;1.00
38938;DHT22;24727;51.974;20.868;2023-04-01T00:33:04;9.50;1.00
38938;DHT22;24727;51.974;20.868;2023-04-01T00:35:30;9.50;1.00
38938;DHT22;24727;51.974;20.868;2023-04-01T00:37:59;9.50;1.00
38938;DHT22;24727;51.974;20.868;2023-04-01T00:40:31;9.40;1.00
38938;DHT22;24727;51.974;20.868;2023-04-01T00:42:58;9.30;1.00
38938;DHT22;24727;51.974;20.868;2023-04-01T00:45:36;9.10;1.00
38938;DHT22;24727;51.974;20.868;2023-04-01T00:48:13;9.00;1.00
38938;DHT22;24727;51.974;20.868;2023-04-01T00:50:43;8.90;1.00
38938;DHT22;24727;51.974;20.868;2023-04-01T00:53:12;8.70;1.00
38938;DHT22;24727;51.974;20.868;2023-04-01T00:55:42;8.60;5.70
38938;DHT22;24727;51.974;20.868;2023-04-01T00:58:15;8.50;29.90
38938;DHT22;24727;51.974;20.868;2023-04-01T01:00:42;8.40;44.90
38938;DHT22;24727;51.974;20.868;2023-04-01T01:03:08;8.40;47.10
38938;DHT22;24727;51.974;20.868;2023-04-01T01:06:09;8.40;50.40
38938;DHT22;24727;51.974;20.868;2023-04-01T01:11:26;8.30;30.30
38938;DHT22;24727;51.974;20.868;2023-04-01T01:14:24;8.30;1.00
38938;DHT22;24727;51.974;20.868;2023-04-01T01:17:32;8.30;1.00
38938;DHT22;24727;51.974;20.868;2023-04-01T01:36:32;8.30;83.00
38938;DHT22;24727;51.974;20.868;2023-04-01T01:39:03;8.30;85.30
38938;DHT22;24727;51.974;20.868;2023-04-01T01:41:31;8.30;86.80
38938;DHT22;24727;51.974;20.868;2023-04-01T01:43:58;8.20;88.10
38938;DHT22;24727;51.974;20.868;2023-04-01T01:46:27;8.30;89.40
38938;DHT22;24727;51.974;20.868;2023-04-01T01:48:55;8.30;90.00
38938;DHT22;24727;51.974;20.868;2023-04-01T01:51:23;8.30;89.20
38938;DHT22;24727;51.974;20.868;2023-04-01T01:53:50;8.30;85.10
38938;DHT22;24727;51.974;20.868;2023-04-01T01:56:17;8.30;66.10
38938;DHT22;24727;51.974;20.868;2023-04-01T01:58:49;8.40;1.00
38938;DHT22;24727;51.974;20.868;2023-04-01T02:01:24;8.50;1.00
38938;DHT22;24727;51.974;20.868;2023-04-01T02:03:52;8.50;1.00
38938;DHT22;24727;51.974;20.868;2023-04-01T02:06:25;8.50;1.00
38938;DHT22;24727;51.974;20.868;2023-04-01T02:08:59;8.50;1.00
38938;DHT22;24727;51.974;20.868;2023-04-01T02:14:17;8.40;1.00
38938;DHT22;24727;51.974;20.868;2023-04-01T02:16:47;8.30;12.80
38938;DHT22;24727;51.974;20.868;2023-04-01T02:19:17;8.30;31.90
38938;DHT22;24727;51.974;20.868;2023-04-01T02:21:57;8.20;50.80
38938;DHT22;24727;51.974;20.868;2023-04-01T02:24:25;8.20;65.20
38938;DHT22;24727;51.974;20.868;2023-04-01T02:26:53;8.10;68.00
38938;DHT22;24727;51.974;20.868;2023-04-01T02:29:23;7.90;77.20
38938;DHT22;24727;51.974;20.868;2023-04-01T02:31:52;7.90;84.70
38938;DHT22;24727;51.974;20.868;2023-04-01T02:34:20;7.90;67.50
38938;DHT22;24727;51.974;20.868;2023-04-01T02:36:48;7.90;1.00
38938;DHT22;24727;51.974;20.868;2023-04-01T02:39:15;7.90;1.00
38938;DHT22;24727;51.974;20.868;2023-04-01T02:41:43;8.00;1.00
38938;DHT22;24727;51.974;20.868;2023-04-01T02:44:10;8.00;1.00
38938;DHT22;24727;51.974;20.868;2023-04-01T02:46:39;8.00;1.00
38938;DHT22;24727;51.974;20.868;2023-04-01T02:49:05;8.00;1.00
38938;DHT22;24727;51.974;20.868;2023-04-01T02:51:33;8.10;21.10
38938;DHT22;24727;51.974;20.868;2023-04-01T02:54:00;8.00;58.30
38938;DHT22;24727;51.974;20.868;2023-04-01T02:56:26;7.90;77.40
38938;DHT22;24727;51.974;20.868;2023-04-01T02:58:53;7.80;85.40
38938;DHT22;24727;51.974;20.868;2023-04-01T03:01:20;7.80;88.40
38938;DHT22;24727;51.974;20.868;2023-04-01T03:03:46;7.80;91.40
38938;DHT22;24727;51.974;20.868;2023-04-01T03:06:14;7.80;93.10
38938;DHT22;24727;51.974;20.868;2023-04-01T03:08:41;7.80;93.90
38938;DHT22;24727;51.974;20.868;2023-04-01T03:11:09;7.70;94.70
38938;DHT22;24727;51.974;20.868;2023-04-01T03:13:36;7.70;95.30
38938;DHT22;24727;51.974;20.868;2023-04-01T03:16:05;7.70;95.40
38938;DHT22;24727;51.974;20.868;2023-04-01T03:18:32;7.70;95.90
38938;DHT22;24727;51.974;20.868;2023-04-01T03:21:20;7.60;95.90
38938;DHT22;24727;51.974;20.868;2023-04-01T03:23:47;7.60;96.40
38938;DHT22;24727;51.974;20.868;2023-04-01T03:26:14;7.60;97.00
38938;DHT22;24727;51.974;20.868;2023-04-01T03:28:40;7.60;97.50
38938;DHT22;24727;51.974;20.868;2023-04-01T03:31:07;7.60;98.10
38938;DHT22;24727;51.974;20.868;2023-04-01T03:33:33;7.70;98.80
38938;DHT22;24727;51.974;20.868;2023-04-01T03:36:00;7.70;99.10
38938;DHT22;24727;51.974;20.868;2023-04-01T03:38:27;7.70;99.50
38938;DHT22;24727;51.974;20.868;2023-04-01T03:40:53;7.70;98.90
38938;DHT22;24727;51.974;20.868;2023-04-01T03:43:20;7.70;99.80
38938;DHT22;24727;51.974;20.868;2023-04-01T03:45:50;7.70;99.90
38938;DHT22;24727;51.974;20.868;2023-04-01T03:48:17;7.70;99.90
38938;DHT22;24727;51.974;20.868;2023-04-01T03:50:44;7.70;99.90
38938;DHT22;24727;51.974;20.868;2023-04-01T03:53:12;7.60;99.90
38938;DHT22;24727;51.974;20.868;2023-04-01T03:55:39;7.60;99.90
38938;DHT22;24727;51.974;20.868;2023-04-01T03:58:06;7.60;99.90
38938;DHT22;24727;51.974;20.868;2023-04-01T04:00:32;7.60;99.90
38938;DHT22;24727;51.974;20.868;2023-04-01T04:02:59;7.60;99.90
38938;DHT22;24727;51.974;20.868;2023-04-01T04:05:26;7.60;99.90
38938;DHT22;24727;51.974;20.868;2023-04-01T04:07:54;7.60;99.90
38938;DHT22;24727;51.974;20.868;2023-04-01T04:10:22;7.60;99.90
38938;DHT22;24727;51.974;20.868;2023-04-01T04:12:51;7.60;99.90
38938;DHT22;24727;51.974;20.868;2023-04-01T04:15:17;7.60;99.90
38938;DHT22;24727;51.974;20.868;2023-04-01T04:17:45;7.60;99.90
38938;DHT22;24727;51.974;20.868;2023-04-01T04:20:12;7.60;99.90
38938;DHT22;24727;51.974;20.868;2023-04-01T04:22:39;7.60;99.90
38938;DHT22;24727;51.974;20.868;2023-04-01T04:25:06;7.70;99.90
38938;DHT22;24727;51.974;20.868;2023-04-01T04:27:32;7.70;99.90
38938;DHT22;24727;51.974;20.868;2023-04-01T04:29:59;7.70;99.90
38938;DHT22;24727;51.974;20.868;2023-04-01T04:32:24;7.70;99.90
38938;DHT22;24727;51.974;20.868;2023-04-01T04:34:51;7.70;99.90
38938;DHT22;24727;51.974;20.868;2023-04-01T04:37:17;7.70;99.90
38938;DHT22;24727;51.974;20.868;2023-04-01T04:39:43;7.70;99.90
38938;DHT22;24727;51.974;20.868;2023-04-01T04:42:10;7.70;99.90
38938;DHT22;24727;51.974;20.868;2023-04-01T04:44:36;7.80;99.90
38938;DHT22;24727;51.974;20.868;2023-04-01T04:47:02;7.80;99.90
38938;DHT22;24727;51.974;20.868;2023-04-01T04:49:28;7.80;99.90
38938;DHT22;24727;51.974;20.868;2023-04-01T04:51:54;7.90;99.90
38938;DHT22;24727;51.974;20.868;2023-04-01T04:54:26;7.80;99.90
38938;DHT22;24727;51.974;20.868;2023-04-01T04:56:53;7.80;99.90
38938;DHT22;24727;51.974;20.868;2023-04-01T04:59:20;7.80;99.90
38938;DHT22;24727;51.974;20.868;2023-04-01T05:01:46;7.80;99.90
38938;DHT22;24727;51.974;20.868;2023-04-01T05:04:12;7.80;99.90
38938;DHT22;24727;51.974;20.868;2023-04-01T05:06:38;7.80;99.90
38938;DHT22;24727;51.974;20.868;2023-04-01T05:09:10;7.90;99.90
38938;DHT22;24727;51.974;20.868;2023-04-01T05:11:37;7.90;99.90
38938;DHT22;24727;51.974;20.868;2023-04-01T05:14:03;7.90;99.90
38938;DHT22;24727;51.974;20.868;2023-04-01T05:16:28;8.00;99.90
38938;DHT22;24727;51.974;20.868;2023-04-01T05:18:55;8.00;99.90
38938;DHT22;24727;51.974;20.868;2023-04-01T05:21:21;8.00;99.90
38938;DHT22;24727;51.974;20.868;2023-04-01T05:23:47;8.00;99.90
38938;DHT22;24727;51.974;20.868;2023-04-01T05:26:14;8.10;99.90
38938;DHT22;24727;51.974;20.868;2023-04-01T05:28:41;8.10;99.90
38938;DHT22;24727;51.974;20.868;2023-04-01T05:31:08;8.10;99.90
38938;DHT22;24727;51.974;20.868;2023-04-01T05:33:34;8.20;99.90
38938;DHT22;24727;51.974;20.868;2023-04-01T05:36:10;8.40;99.90
38938;DHT22;24727;51.974;20.868;2023-04-01T05:38:37;8.50;99.90
38938;DHT22;24727;51.974;20.868;2023-04-01T05:41:03;8.70;99.90
38938;DHT22;24727;51.974;20.868;2023-04-01T05:43:29;8.90;99.90
38938;DHT22;24727;51.974;20.868;2023-04-01T05:46:04;9.00;99.90
38938;DHT22;24727;51.974;20.868;2023-04-01T05:48:31;9.20;99.90
38938;DHT22;24727;51.974;20.868;2023-04-01T05:50:58;9.20;99.90
38938;DHT22;24727;51.974;20.868;2023-04-01T05:53:24;9.30;99.90
38938;DHT22;24727;51.974;20.868;2023-04-01T05:55:50;9.40;99.90
38938;DHT22;24727;51.974;20.868;2023-04-01T05:58:16;9.40;99.90
38938;DHT22;24727;51.974;20.868;2023-04-01T06:00:42;9.40;99.60
38938;DHT22;24727;51.974;20.868;2023-04-01T06:03:09;9.40;98.40
38938;DHT22;24727;51.974;20.868;2023-04-01T06:05:40;9.40;97.10
38938;DHT22;24727;51.974;20.868;2023-04-01T06:08:17;9.30;95.20
38938;DHT22;24727;51.974;20.868;2023-04-01T06:13:28;9.20;93.50
38938;DHT22;24727;51.974;20.868;2023-04-01T06:16:32;9.20;93.70
38938;DHT22;24727;51.974;20.868;2023-04-01T06:25:10;9.20;91.30
38938;DHT22;24727;51.974;20.868;2023-04-01T06:39:27;9.80;88.30
38938;DHT22;24727;51.974;20.868;2023-04-01T06:56:18;9.40;84.30
38938;DHT22;24727;51.974;20.868;2023-04-01T06:58:53;9.50;86.20
38938;DHT22;24727;51.974;20.868;2023-04-01T07:01:42;9.40;86.60
38938;DHT22;24727;51.974;20.868;2023-04-01T07:04:17;9.40;84.50
38938;DHT22;24727;51.974;20.868;2023-04-01T07:09:26;9.40;83.70
38938;DHT22;24727;51.974;20.868;2023-04-01T07:12:02;9.60;84.70
38938;DHT22;24727;51.974;20.868;2023-04-01T07:14:38;9.70;83.10
38938;DHT22;24727;51.974;20.868;2023-04-01T07:17:29;9.80;81.90
38938;DHT22;24727;51.974;20.868;2023-04-01T07:20:03;9.90;82.40
38938;DHT22;24727;51.974;20.868;2023-04-01T07:22:49;9.90;80.30
38938;DHT22;24727;51.974;20.868;2023-04-01T07:25:24;9.80;77.50
38938;DHT22;24727;51.974;20.868;2023-04-01T07:28:13;9.80;75.60
38938;DHT22;24727;51.974;20.868;2023-04-01T07:33:39;9.90;78.20
38938;DHT22;24727;51.974;20.868;2023-04-01T07:45:43;10.00;75.90
38938;DHT22;24727;51.974;20.868;2023-04-01T07:51:03;9.90;78.80
38938;DHT22;24727;51.974;20.868;2023-04-01T07:59:13;9.80;79.20
38938;DHT22;24727;51.974;20.868;2023-04-01T08:12:55;9.90;74.90
38938;DHT22;24727;51.974;20.868;2023-04-01T08:15:49;10.00;75.40
38938;DHT22;24727;51.974;20.868;2023-04-01T08:21:32;10.00;73.70
38938;DHT22;24727;51.974;20.868;2023-04-01T08:23:59;10.00;71.90
38938;DHT22;24727;51.974;20.868;2023-04-01T08:34:50;10.20;1.00
38938;DHT22;24727;51.974;20.868;2023-04-01T08:37:24;10.40;1.00
38938;DHT22;24727;51.974;20.868;2023-04-01T08:39:58;10.40;1.00
38938;DHT22;24727;51.974;20.868;2023-04-01T08:45:40;10.40;1.00
38938;DHT22;24727;51.974;20.868;2023-04-01T08:48:33;10.40;1.00
38938;DHT22;24727;51.974;20.868;2023-04-01T08:56:23;10.20;1.00
38938;DHT22;24727;51.974;20.868;2023-04-01T08:59:23;10.10;1.00
38938;DHT22;24727;51.974;20.868;2023-04-01T09:07:52;10.40;1.00
38938;DHT22;24727;51.974;20.868;2023-04-01T09:27:29;10.50;1.00
38938;DHT22;24727;51.974;20.868;2023-04-01T09:36:01;10.60;1.00
38938;DHT22;24727;51.974;20.868;2023-04-01T09:38:55;10.50;1.00
38938;DHT22;24727;51.974;20.868;2023-04-01T09:41:40;10.50;1.00
38938;DHT22;24727;51.974;20.868;2023-04-01T09:44:40;10.50;1.00
38938;DHT22;24727;51.974;20.868;2023-04-01T09:52:53;10.50;1.00
38938;DHT22;24727;51.974;20.868;2023-04-01T10:07:26;10.60;1.00
38938;DHT22;24727;51.974;20.868;2023-04-01T10:13:42;10.40;1.00
38938;DHT22;24727;51.974;20.868;2023-04-01T10:23:54;10.00;1.00
38938;DHT22;24727;51.974;20.868;2023-04-01T10:26:39;10.10;1.00
38938;DHT22;24727;51.974;20.868;2023-04-01T10:32:18;10.20;1.00
38938;DHT22;24727;51.974;20.868;2023-04-01T10:47:39;11.00;1.00
38938;DHT22;24727;51.974;20.868;2023-04-01T10:50:34;10.40;1.00
38938;DHT22;24727;51.974;20.868;2023-04-01T11:19:50;9.40;65.60
38938;DHT22;24727;51.974;20.868;2023-04-01T11:22:26;9.40;73.40
38938;DHT22;24727;51.974;20.868;2023-04-01T11:33:34;9.20;84.50
38938;DHT22;24727;51.974;20.868;2023-04-01T11:36:42;9.20;88.10
38938;DHT22;24727;51.974;20.868;2023-04-01T11:39:38;9.20;90.60
38938;DHT22;24727;51.974;20.868;2023-04-01T11:42:28;9.30;92.30
38938;DHT22;24727;51.974;20.868;2023-04-01T11:48:18;9.30;94.00
38938;DHT22;24727;51.974;20.868;2023-04-01T11:51:11;9.20;94.20
38938;DHT22;24727;51.974;20.868;2023-04-01T11:56:48;9.40;94.40
38938;DHT22;24727;51.974;20.868;2023-04-01T12:18:27;9.70;92.80
38938;DHT22;24727;51.974;20.868;2023-04-01T12:32:46;9.80;91.60
38938;DHT22;24727;51.974;20.868;2023-04-01T12:44:13;9.80;90.00
38938;DHT22;24727;51.974;20.868;2023-04-01T12:52:13;10.30;92.10
38938;DHT22;24727;51.974;20.868;2023-04-01T13:00:44;10.60;87.90
38938;DHT22;24727;51.974;20.868;2023-04-01T13:03:36;10.60;86.20
38938;DHT22;24727;51.974;20.868;2023-04-01T13:06:32;10.50;83.80
38938;DHT22;24727;51.974;20.868;2023-04-01T13:20:34;11.20;50.40
38938;DHT22;24727;51.974;20.868;2023-04-01T13:23:16;11.10;19.00
38938;DHT22;24727;51.974;20.868;2023-04-01T13:28:59;11.30;2.60
38938;DHT22;24727;51.974;20.868;2023-04-01T13:34:23;11.40;1.00
38938;DHT22;24727;51.974;20.868;2023-04-01T13:45:16;12.00;1.00
38938;DHT22;24727;51.974;20.868;2023-04-01T13:59:51;13.90;1.00
38938;DHT22;24727;51.974;20.868;2023-04-01T14:08:36;13.10;1.00
38938;DHT22;24727;51.974;20.868;2023-04-01T14:11:20;12.40;1.00
38938;DHT22;24727;51.974;20.868;2023-04-01T14:14:14;12.00;1.00
38938;DHT22;24727;51.974;20.868;2023-04-01T14:19:42;11.50;1.00
38938;DHT22;24727;51.974;20.868;2023-04-01T14:27:52;11.10;1.00
38938;DHT22;24727;51.974;20.868;2023-04-01T14:30:46;11.00;1.00
38938;DHT22;24727;51.974;20.868;2023-04-01T14:48:38;10.30;24.60
38938;DHT22;24727;51.974;20.868;2023-04-01T14:50:47;10.30;40.00
38938;DHT22;24727;51.974;20.868;2023-04-01T14:53:38;10.40;53.60
38938;DHT22;24727;51.974;20.868;2023-04-01T14:56:09;10.30;41.70
38938;DHT22;24727;51.974;20.868;2023-04-01T14:58:44;10.30;49.40
38938;DHT22;24727;51.974;20.868;2023-04-01T15:01:33;10.10;38.10
38938;DHT22;24727;51.974;20.868;2023-04-01T15:12:30;9.70;75.80
38938;DHT22;24727;51.974;20.868;2023-04-01T15:15:45;9.90;86.50
38938;DHT22;24727;51.974;20.868;2023-04-01T15:18:27;9.80;82.80
38938;DHT22;24727;51.974;20.868;2023-04-01T15:21:45;9.90;83.10
38938;DHT22;24727;51.974;20.868;2023-04-01T15:24:23;9.80;83.20
38938;DHT22;24727;51.974;20.868;2023-04-01T15:30:14;9.70;90.00
38938;DHT22;24727;51.974;20.868;2023-04-01T15:42:09;9.80;84.10
38938;DHT22;24727;51.974;20.868;2023-04-01T15:52:49;9.50;85.40
38938;DHT22;24727;51.974;20.868;2023-04-01T15:55:36;9.50;85.20
38938;DHT22;24727;51.974;20.868;2023-04-01T15:58:15;9.30;86.90
38938;DHT22;24727;51.974;20.868;2023-04-01T16:00:57;9.40;88.30
38938;DHT22;24727;51.974;20.868;2023-04-01T16:04:04;9.70;86.60
38938;DHT22;24727;51.974;20.868;2023-04-01T16:06:50;9.70;79.00
38938;DHT22;24727;51.974;20.868;2023-04-01T16:09:43;9.70;80.80
38938;DHT22;24727;51.974;20.868;2023-04-01T16:12:18;9.70;75.30
38938;DHT22;24727;51.974;20.868;2023-04-01T16:23:43;9.50;81.40
38938;DHT22;24727;51.974;20.868;2023-04-01T16:29:23;9.10;85.40
38938;DHT22;24727;51.974;20.868;2023-04-01T16:32:11;9.00;87.50
38938;DHT22;24727;51.974;20.868;2023-04-01T16:43:53;8.90;92.20
38938;DHT22;24727;51.974;20.868;2023-04-01T16:46:30;8.80;91.40
38938;DHT22;24727;51.974;20.868;2023-04-01T16:51:54;9.00;89.30
38938;DHT22;24727;51.974;20.868;2023-04-01T16:57:25;9.50;81.90
38938;DHT22;24727;51.974;20.868;2023-04-01T17:02:38;9.40;70.00
38938;DHT22;24727;51.974;20.868;2023-04-01T17:05:12;9.70;55.10
38938;DHT22;24727;51.974;20.868;2023-04-01T17:13:16;9.70;1.00
38938;DHT22;24727;51.974;20.868;2023-04-01T17:19:09;9.40;1.00
38938;DHT22;24727;51.974;20.868;2023-04-01T17:24:53;9.30;1.00
38938;DHT22;24727;51.974;20.868;2023-04-01T17:27:40;9.10;19.40
38938;DHT22;24727;51.974;20.868;2023-04-01T17:30:20;8.90;43.10
38938;DHT22;24727;51.974;20.868;2023-04-01T17:41:50;9.00;25.60
38938;DHT22;24727;51.974;20.868;2023-04-01T17:49:35;9.20;1.00
38938;DHT22;24727;51.974;20.868;2023-04-01T18:03:16;9.70;1.00
38938;DHT22;24727;51.974;20.868;2023-04-01T18:23:09;9.10;1.00
38938;DHT22;24727;51.974;20.868;2023-04-01T18:25:53;9.40;1.00
38938;DHT22;24727;51.974;20.868;2023-04-01T18:28:40;9.10;1.00
38938;DHT22;24727;51.974;20.868;2023-04-01T18:34:12;8.70;6.90
38938;DHT22;24727;51.974;20.868;2023-04-01T18:36:46;8.80;1.00
38938;DHT22;24727;51.974;20.868;2023-04-01T18:39:23;9.00;1.00
38938;DHT22;24727;51.974;20.868;2023-04-01T18:44:55;8.50;1.00
38938;DHT22;24727;51.974;20.868;2023-04-01T18:47:43;8.60;3.50
38938;DHT22;24727;51.974;20.868;2023-04-01T18:55:57;8.60;1.00
38938;DHT22;24727;51.974;20.868;2023-04-01T19:04:00;8.50;7.70
38938;DHT22;24727;51.974;20.868;2023-04-01T19:09:26;8.40;1.00
38938;DHT22;24727;51.974;20.868;2023-04-01T19:14:59;8.30;1.00
38938;DHT22;24727;51.974;20.868;2023-04-01T19:17:53;8.20;1.00
38938;DHT22;24727;51.974;20.868;2023-04-01T19:20:45;8.00;1.00
38938;DHT22;24727;51.974;20.868;2023-04-01T19:23:53;8.00;6.70
38938;DHT22;24727;51.974;20.868;2023-04-01T19:32:08;7.90;3.60
38938;DHT22;24727;51.974;20.868;2023-04-01T19:37:39;8.00;1.00
38938;DHT22;24727;51.974;20.868;2023-04-01T19:45:53;7.90;1.00
38938;DHT22;24727;51.974;20.868;2023-04-01T19:52:04;7.90;10.60
38938;DHT22;24727;51.974;20.868;2023-04-01T20:00:07;7.70;35.80
38938;DHT22;24727;51.974;20.868;2023-04-01T20:03:05;7.70;37.60
38938;DHT22;24727;51.974;20.868;2023-04-01T20:05:50;7.70;35.10
38938;DHT22;24727;51.974;20.868;2023-04-01T20:11:27;7.60;29.00
38938;DHT22;24727;51.974;20.868;2023-04-01T20:14:15;7.60;36.70
38938;DHT22;24727;51.974;20.868;2023-04-01T20:17:01;7.60;39.80
38938;DHT22;24727;51.974;20.868;2023-04-01T20:19:41;7.60;41.30
38938;DHT22;24727;51.974;20.868;2023-04-01T20:25:11;7.50;49.00
38938;DHT22;24727;51.974;20.868;2023-04-01T20:27:49;7.50;52.70
38938;DHT22;24727;51.974;20.868;2023-04-01T20:41:27;7.40;61.40
38938;DHT22;24727;51.974;20.868;2023-04-01T20:44:10;7.40;64.10
38938;DHT22;24727;51.974;20.868;2023-04-01T20:46:45;7.40;62.50
38938;DHT22;24727;51.974;20.868;2023-04-01T20:49:33;7.40;64.80
38938;DHT22;24727;51.974;20.868;2023-04-01T20:52:24;7.30;68.20
38938;DHT22;24727;51.974;20.868;2023-04-01T21:25:54;7.20;76.20
38938;DHT22;24727;51.974;20.868;2023-04-01T21:28:52;7.20;77.20
38938;DHT22;24727;51.974;20.868;2023-04-01T21:40:32;7.10;82.10
38938;DHT22;24727;51.974;20.868;2023-04-01T21:43:16;7.00;84.90
38938;DHT22;24727;51.974;20.868;2023-04-01T21:46:26;7.00;87.20
38938;DHT22;24727;51.974;20.868;2023-04-01T21:49:21;6.90;89.10
38938;DHT22;24727;51.974;20.868;2023-04-01T21:57:25;6.90;91.70
38938;DHT22;24727;51.974;20.868;2023-04-01T22:05:09;6.90;93.40
38938;DHT22;24727;51.974;20.868;2023-04-01T22:10:38;7.10;90.00
38938;DHT22;24727;51.974;20.868;2023-04-01T22:13:18;7.10;88.40
38938;DHT22;24727;51.974;20.868;2023-04-01T22:18:34;6.90;89.40
38938;DHT22;24727;51.974;20.868;2023-04-01T22:21:58;7.00;91.20
38938;DHT22;24727;51.974;20.868;2023-04-01T22:24:35;6.90;89.70
38938;DHT22;24727;51.974;20.868;2023-04-01T22:32:34;6.60;94.60
38938;DHT22;24727;51.974;20.868;2023-04-01T22:35:17;6.50;95.80
38938;DHT22;24727;51.974;20.868;2023-04-01T22:40:39;6.40;97.60
38938;DHT22;24727;51.974;20.868;2023-04-01T22:43:33;6.50;99.20
38938;DHT22;24727;51.974;20.868;2023-04-01T22:46:20;6.50;97.70
38938;DHT22;24727;51.974;20.868;2023-04-01T22:54:34;6.40;96.90
38938;DHT22;24727;51.974;20.868;2023-04-01T22:57:05;6.40;97.20
38938;DHT22;24727;51.974;20.868;2023-04-01T22:59:57;6.40;97.40
38938;DHT22;24727;51.974;20.868;2023-04-01T23:02:30;6.40;97.80
38938;DHT22;24727;51.974;20.868;2023-04-01T23:05:02;6.40;97.90
38938;DHT22;24727;51.974;20.868;2023-04-01T23:07:39;6.40;97.40
38938;DHT22;24727;51.974;20.868;2023-04-01T23:10:39;6.40;97.20
38938;DHT22;24727;51.974;20.868;2023-04-01T23:13:15;6.30;97.10
38938;DHT22;24727;51.974;20.868;2023-04-01T23:15:43;6.30;97.20
38938;DHT22;24727;51.974;20.868;2023-04-01T23:18:21;6.30;97.40
38938;DHT22;24727;51.974;20.868;2023-04-01T23:22:07;6.30;97.20
38938;DHT22;24727;51.974;20.868;2023-04-01T23:29:20;6.20;94.30
38938;DHT22;24727;51.974;20.868;2023-04-01T23:32:13;6.20;93.50
38938;DHT22;24727;51.974;20.868;2023-04-01T23:34:49;6.20;93.10
38938;DHT22;24727;51.974;20.868;2023-04-01T23:37:17;6.10;93.20
38938;DHT22;24727;51.974;20.868;2023-04-01T23:39:56;6.10;93.50
38938;DHT22;24727;51.974;20.868;2023-04-01T23:45:16;6.10;93.90
38938;DHT22;24727;51.974;20.868;2023-04-01T23:47:46;6.10;94.20
38938;DHT22;24727;51.974;20.868;2023-04-01T23:50:23;6.00;94.10
38938;DHT22;24727;51.974;20.868;2023-04-01T23:53:02;6.00;94.10
38938;DHT22;24727;51.974;20.868;2023-04-01T23:55:32;6.00;94.00
